Time;durP1;ratioP1;P1;durP2;ratioP2;P2;SDS_P1;SDS_P2;PMS_P1;PMS_P2;Temp;Humidity;BMP_temperature;BMP_pressure;BME280_temperature;BME280_humidity;BME280_pressure;Samples;Min_cycle;Max_cycle;Signal;HPM_P1;HPM_P2
2022/04/11 00:01:53;;;;;;;7.90;4.18;;;-2.00;99.90;;;;;;5055182;28;20049;-88
2022/04/11 00:04:20;;;;;;;4.47;3.85;;;-2.10;99.90;;;;;;5054095;28;20063;-88
2022/04/11 00:06:47;;;;;;;4.43;4.00;;;-2.10;99.90;;;;;;5054891;28;20111;-88
2022/04/11 00:09:14;;;;;;;4.00;3.70;;;-2.10;99.90;;;;;;5055082;28;20140;-88
2022/04/11 00:11:40;;;;;;;4.88;4.03;;;-2.20;99.90;;;;;;5053863;28;20045;-88
2022/04/11 00:14:07;;;;;;;4.53;4.10;;;-2.20;99.90;;;;;;5053651;28;20139;-88
2022/04/11 00:16:34;;;;;;;4.50;4.10;;;-2.30;99.90;;;;;;5053639;28;20085;-88
2022/04/11 00:19:01;;;;;;;4.85;4.32;;;-2.40;99.90;;;;;;5054576;28;20501;-88
2022/04/11 00:21:28;;;;;;;5.65;4.78;;;-2.30;99.90;;;;;;5053765;28;20498;-88
2022/04/11 00:23:55;;;;;;;6.03;4.38;;;-2.40;99.90;;;;;;5054874;28;20223;-89
2022/04/11 00:26:22;;;;;;;7.55;4.05;;;-2.40;99.90;;;;;;5054461;28;20094;-89
2022/04/11 00:28:48;;;;;;;5.90;4.13;;;-2.40;99.90;;;;;;5053267;28;20044;-88
2022/04/11 00:31:15;;;;;;;7.15;4.70;;;-2.50;99.90;;;;;;5054494;28;20566;-88
2022/04/11 00:33:42;;;;;;;9.23;4.18;;;-2.50;99.90;;;;;;5053676;28;20639;-89
2022/04/11 00:36:09;;;;;;;6.20;4.85;;;-2.60;99.90;;;;;;5053519;28;20453;-89
2022/04/11 00:38:35;;;;;;;4.45;4.07;;;-2.60;99.90;;;;;;5053506;28;20052;-88
2022/04/11 00:41:02;;;;;;;4.82;4.43;;;-2.50;99.90;;;;;;5054400;28;20047;-89
2022/04/11 00:43:32;;;;;;;7.35;4.75;;;-2.50;99.90;;;;;;5053020;28;20128;-89
2022/04/11 00:46:00;;;;;;;11.68;5.80;;;-2.60;99.90;;;;;;5054318;28;20048;-89
2022/04/11 00:48:27;;;;;;;6.93;6.10;;;-2.50;99.90;;;;;;5055103;28;20207;-89
2022/04/11 00:51:01;;;;;;;6.07;5.30;;;-2.50;99.90;;;;;;5053614;28;20056;-89
2022/04/11 00:53:29;;;;;;;7.57;5.40;;;-2.60;99.90;;;;;;5053235;28;20401;-90
2022/04/11 00:55:57;;;;;;;9.00;5.22;;;-2.50;99.90;;;;;;5053945;28;20073;-90
2022/04/11 00:58:24;;;;;;;11.38;5.47;;;-2.60;99.90;;;;;;5053035;28;20156;-90
2022/04/11 01:00:51;;;;;;;7.80;4.45;;;-2.60;99.90;;;;;;5053162;28;20053;-90
2022/04/11 01:03:18;;;;;;;6.70;4.68;;;-2.70;99.90;;;;;;5052994;28;20057;-90
2022/04/11 01:05:45;;;;;;;6.20;4.45;;;-2.70;99.90;;;;;;5052576;28;20144;-90
2022/04/11 01:08:12;;;;;;;11.82;5.72;;;-2.70;99.90;;;;;;5053097;28;20048;-90
2022/04/11 01:10:38;;;;;;;6.55;4.78;;;-2.70;99.90;;;;;;5052811;28;20515;-90
2022/04/11 01:13:05;;;;;;;9.30;5.90;;;-2.70;99.90;;;;;;5053007;28;20049;-90
2022/04/11 01:15:32;;;;;;;6.97;5.70;;;-2.60;99.90;;;;;;5052666;28;20053;-90
2022/04/11 01:18:00;;;;;;;7.05;5.60;;;-2.60;99.90;;;;;;5053084;28;20059;-90
2022/04/11 01:20:27;;;;;;;6.00;4.72;;;-2.70;99.90;;;;;;5052779;28;20103;-90
2022/04/11 01:22:53;;;;;;;6.40;5.18;;;-2.70;99.90;;;;;;5052386;28;20565;-90
2022/04/11 01:25:21;;;;;;;6.05;4.70;;;-2.70;99.90;;;;;;5053323;28;20112;-89
2022/04/11 01:27:47;;;;;;;6.28;4.72;;;-2.70;99.90;;;;;;5052737;28;20132;-90
2022/04/11 01:30:16;;;;;;;6.85;4.78;;;-2.80;99.90;;;;;;5051895;28;20045;-90
2022/04/11 01:32:43;;;;;;;4.32;4.00;;;-2.90;99.90;;;;;;5053741;28;20045;-90
2022/04/11 01:35:20;;;;;;;5.13;4.63;;;-3.00;99.90;;;;;;5052601;28;20041;-90
2022/04/11 01:37:47;;;;;;;6.68;4.15;;;-3.00;99.90;;;;;;5052841;28;20519;-90
2022/04/11 01:40:14;;;;;;;7.53;4.30;;;-3.00;99.90;;;;;;5053610;28;20045;-90
2022/04/11 01:42:43;;;;;;;7.93;4.90;;;-3.10;99.90;;;;;;5052545;28;20077;-90
2022/04/11 01:45:11;;;;;;;9.85;4.85;;;-3.10;99.90;;;;;;5052556;28;20059;-90
2022/04/11 01:47:39;;;;;;;5.47;4.35;;;-3.10;99.90;;;;;;5052820;28;20461;-90
2022/04/11 01:50:07;;;;;;;5.22;4.57;;;-3.00;99.90;;;;;;5053832;28;20148;-90
2022/04/11 01:52:34;;;;;;;6.07;3.72;;;-3.00;99.90;;;;;;5053142;28;20136;-90
2022/04/11 01:55:04;;;;;;;6.97;4.53;;;-3.10;99.90;;;;;;5053197;28;20464;-90
2022/04/11 01:57:47;;;;;;;6.70;4.68;;;-3.00;99.90;;;;;;5052309;28;20551;-90
2022/04/11 02:00:14;;;;;;;6.50;4.68;;;-3.00;99.90;;;;;;5052287;28;20045;-89
2022/04/11 02:02:41;;;;;;;5.80;4.30;;;-2.90;99.90;;;;;;5053108;28;20136;-90
2022/04/11 02:05:08;;;;;;;7.45;4.43;;;-3.00;99.90;;;;;;5053885;28;20083;-90
2022/04/11 02:07:35;;;;;;;5.50;4.93;;;-3.00;99.90;;;;;;5051668;28;20480;-91
2022/04/11 02:10:04;;;;;;;5.45;4.95;;;-3.10;99.90;;;;;;5052743;28;20128;-90
2022/04/11 02:12:31;;;;;;;5.40;5.00;;;-3.10;99.90;;;;;;5052977;28;20049;-91
2022/04/11 02:14:58;;;;;;;10.30;4.85;;;-3.10;99.90;;;;;;5052723;28;20045;-91
2022/04/11 02:17:25;;;;;;;8.68;5.30;;;-3.10;99.90;;;;;;5052698;28;20118;-91
2022/04/11 02:19:51;;;;;;;11.23;5.38;;;-3.00;99.90;;;;;;5052214;28;20132;-91
2022/04/11 02:22:18;;;;;;;10.82;5.72;;;-3.00;99.90;;;;;;5052094;28;20080;-91
2022/04/11 02:24:45;;;;;;;8.10;5.00;;;-3.00;99.90;;;;;;5051843;28;20067;-92
2022/04/11 02:27:12;;;;;;;7.70;5.45;;;-3.10;99.90;;;;;;5051885;28;20049;-92
2022/04/11 02:29:38;;;;;;;7.95;6.18;;;-3.00;99.90;;;;;;5051964;28;20136;-92
2022/04/11 02:32:06;;;;;;;8.82;5.90;;;-3.10;99.90;;;;;;5052699;28;20128;-92
2022/04/11 02:34:33;;;;;;;7.28;4.68;;;-3.10;99.90;;;;;;5051347;28;20063;-92
2022/04/11 02:36:59;;;;;;;9.35;4.95;;;-3.20;99.90;;;;;;5052958;28;20136;-92
2022/04/11 02:39:26;;;;;;;5.95;5.03;;;-3.20;99.90;;;;;;5051696;28;20132;-92
2022/04/11 02:41:53;;;;;;;7.13;3.95;;;-3.30;99.90;;;;;;5055139;28;20148;-92
2022/04/11 02:44:20;;;;;;;10.02;4.82;;;-3.30;99.90;;;;;;5055323;28;20136;-91
2022/04/11 02:46:47;;;;;;;6.65;4.88;;;-3.30;99.90;;;;;;5055821;28;20052;-92
2022/04/11 02:49:13;;;;;;;4.97;4.47;;;-3.30;99.90;;;;;;5056566;28;20454;-92
2022/04/11 02:51:40;;;;;;;5.13;4.25;;;-3.40;99.90;;;;;;5055889;28;20056;-92
2022/04/11 02:54:07;;;;;;;6.70;4.68;;;-3.40;99.90;;;;;;5055573;28;20077;-92
2022/04/11 02:56:34;;;;;;;6.05;4.15;;;-3.40;99.90;;;;;;5056431;28;20083;-92
2022/04/11 02:59:02;;;;;;;6.53;5.03;;;-3.40;99.90;;;;;;5056378;28;20129;-93
2022/04/11 03:01:28;;;;;;;6.30;4.30;;;-3.40;99.90;;;;;;5055374;28;20075;-93
2022/04/11 03:03:55;;;;;;;4.80;4.40;;;-3.40;99.90;;;;;;5055351;28;20049;-92
2022/04/11 03:06:22;;;;;;;5.85;4.38;;;-3.40;99.90;;;;;;5055177;28;20055;-93
2022/04/11 03:08:48;;;;;;;6.72;4.40;;;-3.30;99.90;;;;;;5055512;28;20080;-93
2022/04/11 03:11:15;;;;;;;5.85;4.25;;;-3.40;99.90;;;;;;5055926;28;20084;-93
2022/04/11 03:13:47;;;;;;;6.30;4.25;;;-3.40;99.90;;;;;;5055502;28;20048;-93
2022/04/11 03:16:14;;;;;;;7.45;4.30;;;-3.40;99.90;;;;;;5056305;28;20503;-93
2022/04/11 03:18:41;;;;;;;4.68;4.28;;;-3.40;99.90;;;;;;5055610;28;20083;-93
2022/04/11 03:21:07;;;;;;;7.63;4.47;;;-3.40;99.90;;;;;;5055287;28;20118;-93
2022/04/11 03:23:34;;;;;;;7.47;4.75;;;-3.50;99.90;;;;;;5055908;28;20080;-93
2022/04/11 03:26:01;;;;;;;8.93;4.65;;;-3.50;99.90;;;;;;5055021;28;20136;-93
2022/04/11 03:28:28;;;;;;;10.82;5.30;;;-3.50;99.90;;;;;;5055002;28;20107;-93
2022/04/11 03:30:55;;;;;;;7.28;4.78;;;-3.50;99.90;;;;;;5055164;28;20568;-93
2022/04/11 03:33:22;;;;;;;6.90;4.25;;;-3.60;99.90;;;;;;5054659;28;20060;-93
2022/04/11 03:35:49;;;;;;;5.70;4.38;;;-3.60;99.90;;;;;;5055254;28;20076;-92
2022/04/11 03:38:15;;;;;;;9.85;5.30;;;-3.60;99.90;;;;;;5055246;28;20053;-94
2022/04/11 03:40:42;;;;;;;5.47;4.95;;;-3.60;99.90;;;;;;5054785;28;20139;-94
2022/04/11 03:43:09;;;;;;;6.80;5.10;;;-3.60;99.90;;;;;;5055536;28;20085;-94
2022/04/11 03:45:36;;;;;;;7.68;4.30;;;-3.70;99.90;;;;;;5054517;28;20128;-94
2022/04/11 03:48:03;;;;;;;9.10;4.90;;;-3.70;99.90;;;;;;5054842;28;20472;-93
2022/04/11 03:50:30;;;;;;;9.85;5.22;;;-3.80;99.90;;;;;;5054394;28;20494;-94
2022/04/11 03:52:57;;;;;;;9.32;6.43;;;-3.80;99.90;;;;;;5054667;28;20135;-93
2022/04/11 03:55:24;;;;;;;11.07;5.40;;;-3.90;99.90;;;;;;5054188;28;20076;-93
2022/04/11 03:57:51;;;;;;;9.85;5.53;;;-3.90;99.90;;;;;;5054493;28;20523;-94
2022/04/11 04:00:18;;;;;;;10.02;6.00;;;-3.80;99.90;;;;;;5054616;28;20098;-94
2022/04/11 04:02:45;;;;;;;14.50;6.50;;;-3.80;99.90;;;;;;5054368;28;20408;-91
2022/04/11 04:05:12;;;;;;;8.45;5.85;;;-3.80;99.90;;;;;;5054034;28;20053;-93
2022/04/11 04:07:39;;;;;;;11.02;5.50;;;-3.80;99.90;;;;;;5053905;28;20095;-93
2022/04/11 04:10:06;;;;;;;11.52;5.93;;;-3.80;99.90;;;;;;5054566;28;20045;-93
2022/04/11 04:12:33;;;;;;;10.50;6.47;;;-3.70;99.90;;;;;;5054200;28;20111;-94
2022/04/11 04:15:01;;;;;;;13.77;6.82;;;-3.70;99.90;;;;;;5054330;28;20053;-93
2022/04/11 04:17:28;;;;;;;10.93;6.47;;;-3.60;99.90;;;;;;5053952;28;20053;-93
2022/04/11 04:19:55;;;;;;;14.57;6.45;;;-3.60;99.90;;;;;;5054345;28;20084;-93
2022/04/11 04:22:22;;;;;;;8.05;6.32;;;-3.60;99.90;;;;;;5053937;28;20122;-93
2022/04/11 04:24:49;;;;;;;15.00;7.50;;;-3.70;99.90;;;;;;5053642;28;20124;-93
2022/04/11 04:27:16;;;;;;;18.85;11.95;;;-3.70;99.90;;;;;;5054910;28;20076;-93
2022/04/11 04:29:43;;;;;;;17.10;7.85;;;-3.60;99.90;;;;;;5054385;28;20497;-93
2022/04/11 04:32:10;;;;;;;13.20;7.57;;;-3.60;99.90;;;;;;5053724;28;20136;-93
2022/04/11 04:34:37;;;;;;;7.78;6.75;;;-3.60;99.90;;;;;;5053685;28;20111;-93
2022/04/11 04:37:04;;;;;;;17.17;8.10;;;-3.50;99.90;;;;;;5053396;28;20080;-93
2022/04/11 04:39:31;;;;;;;15.85;8.65;;;-3.50;99.90;;;;;;5054047;28;20135;-93
2022/04/11 04:41:58;;;;;;;16.65;8.82;;;-3.40;99.90;;;;;;5037116;28;20098;-93
2022/04/11 04:44:25;;;;;;;9.18;6.88;;;-3.40;99.90;;;;;;5053340;28;20049;-93
2022/04/11 04:46:52;;;;;;;8.57;7.18;;;-3.40;99.90;;;;;;5053829;28;20052;-93
2022/04/11 04:49:19;;;;;;;11.02;7.60;;;-3.40;99.90;;;;;;5053621;28;20603;-92
2022/04/11 04:51:46;;;;;;;13.05;6.85;;;-3.40;99.90;;;;;;5053177;28;20136;-93
2022/04/11 04:54:13;;;;;;;12.68;6.80;;;-3.40;99.90;;;;;;5053430;28;20484;-93
2022/04/11 04:56:39;;;;;;;13.88;7.80;;;-3.30;99.90;;;;;;5053545;28;20056;-92
2022/04/11 04:59:06;;;;;;;20.92;9.85;;;-3.30;99.90;;;;;;5053665;28;20080;-93
2022/04/11 05:01:33;;;;;;;10.02;7.45;;;-3.20;99.90;;;;;;5053792;28;20089;-93
2022/04/11 05:04:01;;;;;;;15.43;8.40;;;-3.20;99.90;;;;;;5051961;28;20048;-93
2022/04/11 05:06:28;;;;;;;11.55;8.45;;;-3.10;99.90;;;;;;5053053;28;20083;-93
2022/04/11 05:08:55;;;;;;;10.82;8.68;;;-3.10;99.90;;;;;;5053513;28;20080;-93
2022/04/11 05:11:21;;;;;;;18.40;9.65;;;-2.90;99.90;;;;;;5053039;28;20131;-87
2022/04/11 05:13:48;;;;;;;19.80;10.13;;;-2.80;99.90;;;;;;5053974;28;20139;-92
2022/04/11 05:16:21;;;;;;;14.90;10.18;;;-2.70;99.90;;;;;;5052688;28;20144;-92
2022/04/11 05:18:48;;;;;;;23.42;12.07;;;-2.60;99.90;;;;;;5053047;28;20044;-92
2022/04/11 05:21:15;;;;;;;31.98;19.90;;;-2.30;99.90;;;;;;5052995;28;20049;-91
2022/04/11 05:23:42;;;;;;;86.65;50.58;;;-2.00;99.90;;;;;;5052909;28;20561;-92
2022/04/11 05:26:09;;;;;;;38.25;19.55;;;-1.50;99.90;;;;;;5052749;28;20084;-92
2022/04/11 05:28:36;;;;;;;96.63;51.38;;;-1.30;99.90;;;;;;5052578;28;20477;-91
2022/04/11 05:31:03;;;;;;;43.85;23.25;;;-1.10;99.90;;;;;;5052657;28;20119;-91
2022/04/11 05:33:30;;;;;;;53.95;21.77;;;-1.10;99.90;;;;;;5052544;28;20513;-91
2022/04/11 05:35:56;;;;;;;379.35;94.45;;;-0.70;99.90;;;;;;5052047;28;20061;-92
2022/04/11 05:38:24;;;;;;;480.63;110.68;;;-0.30;99.90;;;;;;5053029;28;20458;-91
2022/04/11 05:40:51;;;;;;;727.20;163.98;;;0.30;99.90;;;;;;5053576;28;20065;-90
2022/04/11 05:43:19;;;;;;;77.28;51.30;;;0.90;99.90;;;;;;5052130;28;20048;-90
2022/04/11 05:45:45;;;;;;;15.60;12.95;;;0.90;99.90;;;;;;5052940;28;20049;-89
2022/04/11 05:48:12;;;;;;;11.27;9.68;;;1.20;99.90;;;;;;5053918;28;20056;-89
2022/04/11 05:50:39;;;;;;;14.73;12.43;;;1.60;99.90;;;;;;5054239;28;20140;-89
2022/04/11 05:53:06;;;;;;;14.13;8.45;;;2.30;99.90;;;;;;5052260;28;20099;-89
2022/04/11 05:55:33;;;;;;;10.23;6.55;;;2.80;99.90;;;;;;5053105;28;20108;-89
2022/04/11 05:58:00;;;;;;;15.30;6.07;;;3.60;99.90;;;;;;5051818;28;20564;-88
2022/04/11 06:00:26;;;;;;;20.65;4.75;;;4.40;99.90;;;;;;5052732;28;20139;-87
2022/04/11 06:02:53;;;;;;;11.88;3.58;;;4.50;99.90;;;;;;5052017;28;20045;-87
2022/04/11 06:05:20;;;;;;;4.10;2.63;;;4.90;99.90;;;;;;5052628;28;20053;-87
2022/04/11 06:07:47;;;;;;;8.80;2.50;;;5.60;99.90;;;;;;5051879;28;20140;-86
2022/04/11 06:10:14;;;;;;;5.65;2.75;;;5.80;99.90;;;;;;5052837;28;20160;-86
2022/04/11 06:12:40;;;;;;;7.20;4.68;;;5.20;99.90;;;;;;5052666;28;20051;-86
2022/04/11 06:15:08;;;;;;;9.45;3.63;;;5.00;99.90;;;;;;5051947;28;20080;-87
2022/04/11 06:17:34;;;;;;;5.90;1.90;;;5.40;99.90;;;;;;5056001;28;20550;-87
2022/04/11 06:20:02;;;;;;;15.82;4.07;;;5.10;99.90;;;;;;5056059;28;20045;-86
2022/04/11 06:22:29;;;;;;;12.57;8.32;;;5.40;99.90;;;;;;5055857;28;20512;-86
2022/04/11 06:25:00;;;;;;;14.00;4.03;;;4.80;99.90;;;;;;5056677;28;20118;-87
2022/04/11 06:27:27;;;;;;;24.40;3.58;;;5.10;99.90;;;;;;5055268;28;20092;-87
2022/04/11 06:29:58;;;;;;;16.13;3.72;;;5.70;99.90;;;;;;5056823;28;20139;-87
2022/04/11 06:32:28;;;;;;;16.38;7.68;;;6.20;99.90;;;;;;5056009;28;20128;-86
2022/04/11 06:34:55;;;;;;;6.93;5.82;;;6.10;99.90;;;;;;5055455;28;20514;-87
2022/04/11 06:37:24;;;;;;;7.00;2.60;;;6.40;99.90;;;;;;5055286;28;20053;-87
2022/04/11 06:39:51;;;;;;;29.90;23.65;;;6.90;99.90;;;;;;5055260;28;20405;-86
2022/04/11 06:42:20;;;;;;;9.68;3.95;;;7.60;99.90;;;;;;5055134;28;20073;-86
2022/04/11 06:44:46;;;;;;;9.85;2.25;;;7.90;99.90;;;;;;5055235;28;20106;-86
2022/04/11 06:47:13;;;;;;;11.80;6.25;;;8.00;99.90;;;;;;5056391;28;20544;-87
2022/04/11 06:49:40;;;;;;;5.93;4.88;;;7.90;99.90;;;;;;5055024;28;20076;-86
2022/04/11 06:52:07;;;;;;;5.35;2.40;;;7.50;99.90;;;;;;5055922;28;20078;-86
2022/04/11 06:54:34;;;;;;;20.77;11.48;;;7.30;99.90;;;;;;5054582;28;20267;-86
2022/04/11 06:57:01;;;;;;;12.80;5.72;;;7.20;99.90;;;;;;5053841;28;20055;-86
2022/04/11 06:59:28;;;;;;;7.55;2.78;;;7.50;99.90;;;;;;5051550;28;20041;-86
2022/04/11 07:01:55;;;;;;;16.20;2.90;;;8.10;99.90;;;;;;5055840;28;20049;-86
2022/04/11 07:04:22;;;;;;;13.02;2.70;;;8.60;99.90;;;;;;5054560;28;20059;-87
2022/04/11 07:06:49;;;;;;;21.05;2.72;;;9.20;99.90;;;;;;5054382;28;20061;-86
2022/04/11 07:09:16;;;;;;;9.65;2.30;;;9.20;99.90;;;;;;5055690;28;20098;-86
2022/04/11 07:11:43;;;;;;;6.53;1.65;;;9.10;99.90;;;;;;5054485;28;20095;-87
2022/04/11 07:14:11;;;;;;;15.98;2.88;;;9.60;99.90;;;;;;5055323;28;20091;-86
2022/04/11 07:16:38;;;;;;;14.70;2.58;;;9.70;99.50;;;;;;5055356;28;20084;-86
2022/04/11 07:19:06;;;;;;;12.82;3.78;;;9.90;99.50;;;;;;5054130;28;20143;-86
2022/04/11 07:21:33;;;;;;;11.82;3.13;;;9.90;98.60;;;;;;5054102;28;20490;-86
2022/04/11 07:24:00;;;;;;;11.68;2.75;;;10.00;98.10;;;;;;5055373;28;20135;-86
2022/04/11 07:26:27;;;;;;;8.98;2.50;;;10.30;96.80;;;;;;5054745;28;20493;-85
2022/04/11 07:28:54;;;;;;;10.77;2.20;;;10.80;95.70;;;;;;5054559;28;20049;-85
2022/04/11 07:31:21;;;;;;;12.30;2.60;;;11.10;95.70;;;;;;5053700;28;20064;-85
2022/04/11 07:33:49;;;;;;;7.47;2.10;;;11.60;94.70;;;;;;5054691;28;20583;-85
2022/04/11 07:36:15;;;;;;;11.00;2.83;;;12.50;91.80;;;;;;5052770;28;20049;-84
2022/04/11 07:38:42;;;;;;;9.98;2.13;;;12.90;91.60;;;;;;5054513;28;20049;-85
2022/04/11 07:41:09;;;;;;;14.02;2.63;;;13.70;88.30;;;;;;5054709;28;20084;-85
2022/04/11 07:43:36;;;;;;;11.30;3.28;;;14.00;83.30;;;;;;5054694;28;20053;-85
2022/04/11 07:46:05;;;;;;;11.10;2.78;;;13.80;82.70;;;;;;5053579;28;20095;-86
2022/04/11 07:48:32;;;;;;;12.93;2.20;;;14.40;81.70;;;;;;5053263;28;20094;-85
2022/04/11 07:50:59;;;;;;;13.40;2.30;;;14.60;78.90;;;;;;5052883;28;20048;-84
2022/04/11 07:53:27;;;;;;;8.63;2.10;;;14.30;82.00;;;;;;5053318;28;20805;-83
2022/04/11 07:55:54;;;;;;;7.18;2.03;;;15.50;80.90;;;;;;5054330;28;20045;-82
2022/04/11 07:58:22;;;;;;;5.28;1.42;;;15.20;76.70;;;;;;5052835;28;20049;-83
2022/04/11 08:00:51;;;;;;;4.38;1.60;;;16.00;75.60;;;;;;5053355;28;20143;-83
2022/04/11 08:03:19;;;;;;;5.93;1.70;;;16.70;72.50;;;;;;5052900;28;20049;-83
2022/04/11 08:05:46;;;;;;;7.20;1.75;;;16.30;72.80;;;;;;5053940;28;20088;-83
2022/04/11 08:08:13;;;;;;;4.70;1.77;;;16.90;71.40;;;;;;5069995;28;20120;-83
2022/04/11 08:10:40;;;;;;;6.70;1.45;;;17.00;70.20;;;;;;5053586;28;20455;-83
2022/04/11 08:13:06;;;;;;;5.10;1.55;;;17.10;70.20;;;;;;5053226;28;20139;-83
2022/04/11 08:15:33;;;;;;;3.83;1.13;;;17.00;70.70;;;;;;5053883;28;20049;-83
2022/04/11 08:18:01;;;;;;;3.63;1.27;;;17.30;70.10;;;;;;5053152;28;20051;-83
2022/04/11 08:20:28;;;;;;;3.03;1.00;;;17.20;70.20;;;;;;5054155;28;20087;-83
2022/04/11 08:22:55;;;;;;;3.72;1.45;;;19.60;65.60;;;;;;5053924;28;20527;-83
2022/04/11 08:25:22;;;;;;;2.75;1.27;;;20.20;62.80;;;;;;5049597;28;20292;-83
2022/04/11 08:27:49;;;;;;;4.10;1.00;;;21.30;59.90;;;;;;5052750;28;20114;-83
2022/04/11 08:30:16;;;;;;;2.78;0.80;;;22.30;58.10;;;;;;5053638;28;20080;-84
2022/04/11 08:32:46;;;;;;;5.40;1.27;;;23.70;54.50;;;;;;5053315;28;20045;-84
2022/04/11 08:35:14;;;;;;;4.55;1.35;;;23.20;53.70;;;;;;5050015;28;20493;-84
2022/04/11 08:37:41;;;;;;;8.73;2.03;;;23.40;52.00;;;;;;5053501;28;20049;-84
2022/04/11 08:40:11;;;;;;;7.50;1.08;;;22.40;54.00;;;;;;5052128;28;20133;-84
2022/04/11 08:42:40;;;;;;;5.45;1.23;;;23.90;51.90;;;;;;5053389;28;20080;-84
2022/04/11 08:45:13;;;;;;;4.10;1.13;;;25.10;50.00;;;;;;5052974;28;20480;-84
2022/04/11 08:47:42;;;;;;;7.60;1.48;;;24.60;49.50;;;;;;5076713;28;20138;-84
2022/04/11 08:50:10;;;;;;;8.10;1.90;;;25.00;48.50;;;;;;5052311;28;20462;-84
2022/04/11 08:52:37;;;;;;;3.03;0.70;;;25.30;48.30;;;;;;5052054;28;20044;-84
2022/04/11 08:55:06;;;;;;;2.35;0.90;;;24.90;46.00;;;;;;5053002;28;20041;-83
2022/04/11 08:57:35;;;;;;;3.75;1.00;;;25.00;46.90;;;;;;5076867;28;20052;-84
2022/04/11 09:00:04;;;;;;;4.63;0.80;;;;;;;;;;5051779;28;20047;-84
2022/04/11 09:02:32;;;;;;;2.72;0.90;;;;;;;;;;5050001;28;20416;-84
2022/04/11 09:04:59;;;;;;;0.82;0.60;;;;;;;;;;5053095;28;20049;-85
2022/04/11 09:07:26;;;;;;;2.80;0.70;;;;;;;;;;5051521;28;20127;-85
2022/04/11 09:10:01;;;;;;;1.98;0.90;;;;;;;;;;5053125;28;20485;-85
2022/04/11 09:12:28;;;;;;;1.45;0.63;;;;;;;;;;5052409;28;20057;-86
2022/04/11 09:14:56;;;;;;;4.85;1.15;;;;;;;;;;5052833;28;20160;-85
2022/04/11 09:17:24;;;;;;;3.63;1.20;;;;;;;;;;5052808;28;20136;-84
2022/04/11 09:20:10;;;;;;;6.82;1.40;;;;;;;;;;5049139;28;20079;-85
2022/04/11 09:22:41;;;;;;;5.75;1.20;;;;;;;;;;5049801;28;20552;-85
2022/04/11 09:25:09;;;;;;;1.35;0.60;;;;;;;;;;5052717;28;20113;-86
2022/04/11 09:27:36;;;;;;;1.95;0.77;;;;;;;;;;5051738;28;20077;-85
2022/04/11 09:30:28;;;;;;;2.67;0.60;;;;;;;;;;5051545;28;20645;-86
2022/04/11 09:32:58;;;;;;;3.80;0.70;;;;;;;;;;5063598;28;20128;-85
2022/04/11 09:35:27;;;;;;;1.33;0.57;;;;;;;;;;5051574;28;20055;-83
2022/04/11 09:38:06;;;;;;;1.75;0.43;;;;;;;;;;5052963;28;20085;-85
2022/04/11 09:40:37;;;;;;;1.33;0.90;;;;;;;;;;5052652;28;20055;-83
2022/04/11 09:43:04;;;;;;;1.70;0.70;;;;;;;;;;5051953;28;20111;-84
2022/04/11 09:45:31;;;;;;;3.53;0.60;;;;;;;;;;5051511;28;20052;-83
2022/04/11 09:48:00;;;;;;;3.28;0.98;;;;;;;;;;5051630;28;20110;-84
2022/04/11 09:50:33;;;;;;;1.73;0.50;;;;;;;;;;5051315;28;20088;-84
2022/04/11 09:53:07;;;;;;;0.73;0.70;;;;;;;;;;5052216;28;20137;-84
2022/04/11 09:55:35;;;;;;;1.30;0.60;;;;;;;;;;5050953;28;20570;-84
2022/04/11 09:58:04;;;;;;;1.92;0.60;;;;;;;;;;5051774;28;20315;-84
2022/04/11 10:00:36;;;;;;;2.45;0.75;;;;;;;;;;5052245;28;20520;-84
2022/04/11 10:03:05;;;;;;;3.53;0.77;;;;;;;;;;5052707;28;20049;-83
2022/04/11 10:05:33;;;;;;;2.05;0.60;;;;;;;;;;5051548;28;20072;-87
2022/04/11 10:08:02;;;;;;;1.50;0.70;;;;;;;;;;5052667;28;20128;-86
2022/04/11 10:10:38;;;;;;;1.83;0.50;;;24.10;47.30;;;;;;5052025;28;20065;-87
2022/04/11 10:13:14;;;;;;;1.45;0.77;;;24.00;40.00;;;;;;5053035;28;20052;-85
2022/04/11 10:15:42;;;;;;;0.73;0.50;;;;;;;;;;5050318;28;20080;-84
2022/04/11 10:18:10;;;;;;;2.45;0.68;;;;;;;;;;5049886;28;20041;-84
2022/04/11 10:20:39;;;;;;;1.63;0.50;;;;;;;;;;5049886;28;20049;-84
2022/04/11 10:23:34;;;;;;;0.60;0.38;;;;;;;;;;5051643;28;20057;-85
2022/04/11 10:26:12;;;;;;;0.68;0.50;;;;;;;;;;5049805;28;20136;-83
2022/04/11 10:28:47;;;;;;;4.25;0.57;;;22.50;44.60;;;;;;5051576;28;20056;-84
2022/04/11 10:31:15;;;;;;;4.07;0.73;;;;;;;;;;5051890;28;20053;-84
2022/04/11 10:33:43;;;;;;;0.50;0.38;;;;;;;;;;5052744;28;20045;-83
2022/04/11 10:36:45;;;;;;;0.63;0.38;;;;;;;;;;5051449;28;20114;-84
2022/04/11 10:39:15;;;;;;;1.55;0.52;;;;;;;;;;5030827;28;20137;-84
2022/04/11 10:41:55;;;;;;;1.60;0.80;;;;;;;;;;5044512;28;20061;-83
2022/04/11 10:44:42;;;;;;;8.27;1.15;;;;;;;;;;5052597;28;20132;-84
2022/04/11 10:47:12;;;;;;;16.90;3.95;;;;;;;;;;5052050;28;20088;-85
2022/04/11 10:49:49;;;;;;;4.75;1.65;;;;;;;;;;5052371;28;20182;-86
2022/04/11 10:52:36;;;;;;;1.90;0.68;;;;;;;;;;5052685;28;20494;-84
2022/04/11 10:55:17;;;;;;;0.57;0.50;;;;;;;;;;5053062;28;20124;-84
2022/04/11 10:57:52;;;;;;;1.35;0.50;;;;;;;;;;5051779;28;20049;-86
2022/04/11 11:00:31;;;;;;;1.50;0.57;;;25.00;43.30;;;;;;5051477;28;20383;-87
2022/04/11 11:03:01;;;;;;;3.67;0.70;;;26.10;40.10;;;;;;5054454;28;20413;-85
2022/04/11 11:05:41;;;;;;;2.30;0.63;;;25.90;39.90;;;;;;5055045;28;20049;-85
2022/04/11 11:08:11;;;;;;;3.55;0.38;;;26.40;39.50;;;;;;5088867;28;20095;-86
2022/04/11 11:10:41;;;;;;;2.08;0.90;;;25.00;40.00;;;;;;5054598;28;20099;-84
2022/04/11 11:13:25;;;;;;;1.00;0.40;;;24.50;39.90;;;;;;5054679;28;20060;-86
2022/04/11 11:15:58;;;;;;;1.42;0.80;;;24.80;40.30;;;;;;5054438;28;20041;-84
2022/04/11 11:18:27;;;;;;;0.65;0.40;;;23.80;39.00;;;;;;5055918;28;20045;-85
2022/04/11 11:20:58;;;;;;;1.75;0.75;;;20.70;47.50;;;;;;5087845;28;20079;-84
2022/04/11 11:23:31;;;;;;;0.60;0.60;;;21.10;44.00;;;;;;5054500;28;20053;-84
2022/04/11 11:26:12;;;;;;;22.77;5.07;;;22.20;42.00;;;;;;5054552;28;20056;-85
2022/04/11 11:28:45;;;;;;;14.38;5.00;;;23.20;44.30;;;;;;5055673;28;20053;-85
2022/04/11 11:31:12;;;;;;;83.57;17.98;;;23.70;41.40;;;;;;5087923;28;20128;-84
2022/04/11 11:33:50;;;;;;;2.05;0.73;;;23.40;40.50;;;;;;5055754;28;20052;-85
2022/04/11 11:36:27;;;;;;;34.80;6.75;;;22.00;42.50;;;;;;5055664;28;20074;-84
2022/04/11 11:38:54;;;;;;;1.27;0.60;;;20.90;43.20;;;;;;5055954;28;20128;-85
2022/04/11 11:41:25;;;;;;;2.10;0.75;;;21.10;44.20;;;;;;5087921;28;20091;-85
2022/04/11 11:43:55;;;;;;;12.48;1.70;;;21.80;44.00;;;;;;5054910;28;20103;-84
2022/04/11 11:46:22;;;;;;;0.95;0.65;;;22.40;43.80;;;;;;5054290;28;20106;-85
2022/04/11 11:48:49;;;;;;;0.95;0.50;;;21.20;42.70;;;;;;5054614;28;20041;-85
2022/04/11 11:51:15;;;;;;;1.00;0.50;;;22.00;44.10;;;;;;5054531;28;20409;-86
2022/04/11 11:53:49;;;;;;;1.33;0.50;;;23.10;42.90;;;;;;5054086;28;20044;-85
2022/04/11 11:56:16;;;;;;;1.38;0.60;;;23.60;42.00;;;;;;5055563;28;20052;-88
2022/04/11 11:58:43;;;;;;;0.60;0.60;;;22.60;42.30;;;;;;5087948;28;20045;-86
2022/04/11 12:01:12;;;;;;;1.17;0.50;;;22.30;42.60;;;;;;5054216;28;20568;-86
2022/04/11 12:06:32;;;;;;;2.42;1.08;;;22.70;44.50;;;;;;5054711;28;20139;-84
2022/04/11 12:09:02;;;;;;;0.95;0.40;;;23.60;43.10;;;;;;5055184;28;20049;-84
2022/04/11 12:11:30;;;;;;;0.90;0.47;;;23.70;43.30;;;;;;5055110;28;20049;-84
2022/04/11 12:14:05;;;;;;;1.80;0.40;;;24.50;43.40;;;;;;5086700;28;20053;-84
2022/04/11 12:16:34;;;;;;;3.60;0.65;;;23.70;42.10;;;;;;5053922;28;20068;-85
2022/04/11 12:19:03;;;;;;;2.22;0.70;;;24.60;43.90;;;;;;5054719;28;20049;-84
2022/04/11 12:21:32;;;;;;;1.75;0.73;;;23.30;42.40;;;;;;5054102;28;20083;-85
2022/04/11 12:24:00;;;;;;;18.70;1.90;;;23.50;41.90;;;;;;5054206;28;20087;-85
2022/04/11 12:26:32;;;;;;;4.85;1.00;;;22.90;42.00;;;;;;5054801;28;20095;-86
2022/04/11 12:29:18;;;;;;;2.90;0.88;;;22.40;43.20;;;;;;5055193;28;20128;-85
2022/04/11 12:31:55;;;;;;;2.28;0.77;;;21.80;44.10;;;;;;5054892;28;20131;-85
2022/04/11 12:34:34;;;;;;;2.17;0.75;;;21.10;43.50;;;;;;5054517;28;20416;-84
2022/04/11 12:37:05;;;;;;;1.52;0.57;;;20.30;45.70;;;;;;5053425;28;20075;-83
2022/04/11 12:39:47;;;;;;;2.00;0.75;;;20.10;48.50;;;;;;5054876;28;20131;-84
2022/04/11 12:42:21;;;;;;;25.70;5.53;;;19.90;46.20;;;;;;5054669;28;20056;-84
2022/04/11 12:44:49;;;;;;;3.08;0.85;;;19.10;45.30;;;;;;5054494;28;20412;-84
2022/04/11 12:47:20;;;;;;;1.08;0.77;;;19.10;46.80;;;;;;5053260;28;20061;-84
2022/04/11 12:49:51;;;;;;;3.45;0.75;;;18.90;48.10;;;;;;5054373;28;20080;-84
2022/04/11 12:52:23;;;;;;;1.90;0.73;;;18.90;46.40;;;;;;5053268;28;20481;-83
2022/04/11 12:55:00;;;;;;;2.15;0.70;;;18.50;47.50;;;;;;5054580;28;20484;-84
2022/04/11 12:57:32;;;;;;;1.42;0.70;;;18.40;49.10;;;;;;5054660;28;20098;-84
2022/04/11 13:00:21;;;;;;;5.47;1.13;;;18.20;47.80;;;;;;5053485;28;20053;-84
2022/04/11 13:02:48;;;;;;;6.22;1.08;;;18.20;49.00;;;;;;5087028;28;20551;-87
2022/04/11 13:05:17;;;;;;;1.33;0.70;;;18.10;48.90;;;;;;5054547;28;20486;-85
2022/04/11 13:08:01;;;;;;;2.25;0.70;;;17.60;48.80;;;;;;5053486;28;20130;-86
2022/04/11 13:10:30;;;;;;;0.93;0.73;;;17.40;50.30;;;;;;5086757;28;20073;-85